Time,TemperatureF,DewpointF,PressureIn,WindDirection,WindDirectionDegrees,WindSpeedMPH,WindSpeedGustMPH,Humidity,HourlyPrecipIn,Conditions,Clouds,dailyrainin,SolarRadiationWatts/m^2,SoftwareType,DateUTC
2013-08-31 00:00:00,61.9,47.4,30.79,North,360,0.0,3.0,59,0.00,,,0.00,0.00,VWS V14.00,2013-08-31 06:00:00,
2013-08-31 00:04:00,62.3,48.2,30.79,North,360,3.0,3.0,60,0.00,,,0.00,0.00,VWS V14.00,2013-08-31 06:04:00,
2013-08-31 00:09:00,61.8,47.3,30.78,North,360,0.0,0.0,59,0.00,,,0.00,0.00,VWS V14.00,2013-08-31 06:09:00,
2013-08-31 00:14:00,61.2,47.2,30.79,North,360,0.0,0.0,60,0.00,,,0.00,0.00,VWS V14.00,2013-08-31 06:14:00,
2013-08-31 00:15:00,59.9,47.3,30.79,North,360,0.0,1.0,63,0.00,,,0.00,0.00,VWS V14.00,2013-08-31 06:15:00,
2013-08-31 00:19:00,60.5,47.9,30.79,North,360,0.0,0.0,63,0.00,,,0.00,0.00,VWS V14.00,2013-08-31 06:19:00,
2013-08-31 00:24:00,59.8,47.2,30.79,North,360,0.0,0.0,63,0.00,,,0.00,0.00,VWS V14.00,2013-08-31 06:24:00,
2013-08-31 00:29:00,59.4,47.2,30.81,North,360,0.0,0.0,64,0.00,,,0.00,0.00,VWS V14.00,2013-08-31 06:29:00,
2013-08-31 00:30:00,59.0,46.8,30.81,North,360,0.0,0.0,64,0.00,,,0.00,0.00,VWS V14.00,2013-08-31 06:30:00,
2013-08-31 00:34:00,59.0,46.8,30.81,North,360,0.0,0.0,64,0.00,,,0.00,0.00,VWS V14.00,2013-08-31 06:34:00,
2013-08-31 00:39:00,59.0,46.8,30.81,North,360,0.0,0.0,64,0.00,,,0.00,0.00,VWS V14.00,2013-08-31 06:39:00,
2013-08-31 00:44:00,59.0,46.8,30.81,North,360,0.0,0.0,64,0.00,,,0.00,0.00,VWS V14.00,2013-08-31 06:44:00,
2013-08-31 00:45:00,59.0,47.7,30.81,North,360,0.0,0.0,66,0.00,,,0.00,0.00,VWS V14.00,2013-08-31 06:45:00,
2013-08-31 00:49:00,59.0,46.8,30.81,North,360,0.0,0.0,64,0.00,,,0.00,0.00,VWS V14.00,2013-08-31 06:49:00,
2013-08-31 00:54:00,59.0,47.3,30.81,North,360,0.0,0.0,65,0.00,,,0.00,0.00,VWS V14.00,2013-08-31 06:54:00,
2013-08-31 00:59:00,59.0,46.8,30.81,North,360,0.0,0.0,64,0.00,,,0.00,0.00,VWS V14.00,2013-08-31 06:59:00,
2013-08-31 01:00:00,59.0,46.4,30.81,North,360,0.0,0.0,63,0.00,,,0.00,0.00,VWS V14.00,2013-08-31 07:00:00,
2013-08-31 01:04:00,59.0,46.4,30.81,North,360,0.0,0.0,63,0.00,,,0.00,0.00,VWS V14.00,2013-08-31 07:04:00,
2013-08-31 01:09:00,59.0,46.4,30.79,North,360,0.0,0.0,63,0.00,,,0.00,0.00,VWS V14.00,2013-08-31 07:09:00,
2013-08-31 01:14:00,59.0,46.8,30.80,North,360,0.0,0.0,64,0.00,,,0.00,0.00,VWS V14.00,2013-08-31 07:14:00,
2013-08-31 01:15:00,59.0,46.8,30.80,North,360,0.0,0.0,64,0.00,,,0.00,0.00,VWS V14.00,2013-08-31 07:15:00,
2013-08-31 01:19:00,59.0,46.0,30.80,North,360,0.0,0.0,62,0.00,,,0.00,0.00,VWS V14.00,2013-08-31 07:19:00,
2013-08-31 01:24:00,59.0,46.8,30.80,North,360,0.0,0.0,64,0.00,,,0.00,0.00,VWS V14.00,2013-08-31 07:24:00,
2013-08-31 01:29:00,59.0,46.8,30.80,North,360,0.0,0.0,64,0.00,,,0.00,0.00,VWS V14.00,2013-08-31 07:29:00,
2013-08-31 01:30:00,58.8,46.7,30.80,North,360,0.0,0.0,64,0.00,,,0.00,0.00,VWS V14.00,2013-08-31 07:30:00,
2013-08-31 01:34:00,58.9,46.3,30.80,North,360,0.0,0.0,63,0.00,,,0.00,0.00,VWS V14.00,2013-08-31 07:34:00,
2013-08-31 01:39:00,58.8,46.7,30.80,North,360,0.0,0.0,64,0.00,,,0.00,0.00,VWS V14.00,2013-08-31 07:39:00,
2013-08-31 01:44:00,58.6,46.1,30.80,North,360,0.0,0.0,63,0.00,,,0.00,0.00,VWS V14.00,2013-08-31 07:44:00,
2013-08-31 01:45:00,58.5,47.2,30.80,North,360,0.0,0.0,66,0.00,,,0.00,0.00,VWS V14.00,2013-08-31 07:45:00,
2013-08-31 01:49:00,58.5,46.4,30.80,North,360,0.0,0.0,64,0.00,,,0.00,0.00,VWS V14.00,2013-08-31 07:49:00,
2013-08-31 01:54:00,58.5,46.8,30.80,North,360,0.0,0.0,65,0.00,,,0.00,0.00,VWS V14.00,2013-08-31 07:54:00,
2013-08-31 01:59:00,58.3,46.2,30.80,North,360,0.0,1.0,64,0.00,,,0.00,0.00,VWS V14.00,2013-08-31 07:59:00,
2013-08-31 02:04:00,58.1,46.4,30.80,North,360,0.0,1.0,65,0.00,,,0.00,0.00,VWS V14.00,2013-08-31 08:04:00,
2013-08-31 02:09:00,57.6,46.3,30.80,North,360,0.0,0.0,66,0.00,,,0.00,0.00,VWS V14.00,2013-08-31 08:09:00,
2013-08-31 02:14:00,57.3,45.7,30.80,North,360,0.0,0.0,65,0.00,,,0.00,0.00,VWS V14.00,2013-08-31 08:14:00,
2013-08-31 02:19:00,57.2,46.0,30.80,North,360,0.0,0.0,66,0.00,,,0.00,0.00,VWS V14.00,2013-08-31 08:19:00,
2013-08-31 02:24:00,57.1,46.7,30.80,North,360,0.0,0.0,68,0.00,,,0.00,0.00,VWS V14.00,2013-08-31 08:24:00,
2013-08-31 02:29:00,56.8,46.4,30.80,North,360,0.0,0.0,68,0.00,,,0.00,0.00,VWS V14.00,2013-08-31 08:29:00,
2013-08-31 02:34:00,56.4,46.4,30.81,North,360,0.0,0.0,69,0.00,,,0.00,0.00,VWS V14.00,2013-08-31 08:34:00,
2013-08-31 02:39:00,55.7,46.1,30.81,North,360,0.0,0.0,70,0.00,,,0.00,0.00,VWS V14.00,2013-08-31 08:39:00,
2013-08-31 02:44:00,55.2,46.0,30.81,North,360,0.0,0.0,71,0.00,,,0.00,0.00,VWS V14.00,2013-08-31 08:44:00,
2013-08-31 02:49:00,54.7,45.9,30.81,North,360,0.0,3.0,72,0.00,,,0.00,0.00,VWS V14.00,2013-08-31 08:49:00,
2013-08-31 02:54:00,54.5,45.7,30.81,North,360,0.0,0.0,72,0.00,,,0.00,0.00,VWS V14.00,2013-08-31 08:54:00,
2013-08-31 02:59:00,54.1,45.7,30.82,North,360,0.0,0.0,73,0.00,,,0.00,0.00,VWS V14.00,2013-08-31 08:59:00,
2013-08-31 03:04:00,53.7,46.0,30.82,North,360,0.0,1.0,75,0.00,,,0.00,0.00,VWS V14.00,2013-08-31 09:04:00,
2013-08-31 03:09:00,53.4,45.7,30.81,North,360,0.0,0.0,75,0.00,,,0.00,0.00,VWS V14.00,2013-08-31 09:09:00,
2013-08-31 03:14:00,53.1,45.4,30.82,North,360,0.0,0.0,75,0.00,,,0.00,0.00,VWS V14.00,2013-08-31 09:14:00,
2013-08-31 03:19:00,53.0,45.3,30.82,North,360,0.0,0.0,75,0.00,,,0.00,0.00,VWS V14.00,2013-08-31 09:19:00,
2013-08-31 03:24:00,52.8,44.8,30.82,North,360,0.0,0.0,74,0.00,,,0.00,0.00,VWS V14.00,2013-08-31 09:24:00,
2013-08-31 03:29:00,52.4,44.7,30.83,North,360,0.0,0.0,75,0.00,,,0.00,0.00,VWS V14.00,2013-08-31 09:29:00,
2013-08-31 03:34:00,52.1,44.8,30.83,North,360,0.0,0.0,76,0.00,,,0.00,0.00,VWS V14.00,2013-08-31 09:34:00,
2013-08-31 03:39:00,52.1,45.1,30.82,North,360,0.0,0.0,77,0.00,,,0.00,0.00,VWS V14.00,2013-08-31 09:39:00,
2013-08-31 03:44:00,51.9,45.3,30.83,North,360,0.0,1.0,78,0.00,,,0.00,0.00,VWS V14.00,2013-08-31 09:44:00,
2013-08-31 03:49:00,51.9,45.3,30.83,North,360,0.0,1.0,78,0.00,,,0.00,0.00,VWS V14.00,2013-08-31 09:49:00,
2013-08-31 03:54:00,51.8,45.2,30.83,North,360,0.0,0.0,78,0.00,,,0.00,0.00,VWS V14.00,2013-08-31 09:54:00,
2013-08-31 03:59:00,51.6,45.0,30.83,North,360,0.0,0.0,78,0.00,,,0.00,0.00,VWS V14.00,2013-08-31 09:59:00,
2013-08-31 04:04:00,51.6,45.3,30.83,North,360,0.0,0.0,79,0.00,,,0.00,0.00,VWS V14.00,2013-08-31 10:04:00,
2013-08-31 04:09:00,51.5,45.2,30.83,North,360,0.0,0.0,79,0.00,,,0.00,0.00,VWS V14.00,2013-08-31 10:09:00,
2013-08-31 04:14:00,51.5,44.9,30.83,North,360,0.0,1.0,78,0.00,,,0.00,0.00,VWS V14.00,2013-08-31 10:14:00,
2013-08-31 04:19:00,51.6,45.0,30.83,North,360,0.0,1.0,78,0.00,,,0.00,0.00,VWS V14.00,2013-08-31 10:19:00,
2013-08-31 04:24:00,51.5,44.5,30.82,North,360,0.0,0.0,77,0.00,,,0.00,0.00,VWS V14.00,2013-08-31 10:24:00,
2013-08-31 04:29:00,51.5,44.5,30.82,North,360,0.0,0.0,77,0.00,,,0.00,0.00,VWS V14.00,2013-08-31 10:29:00,
2013-08-31 04:34:00,51.4,45.1,30.82,North,360,0.0,0.0,79,0.00,,,0.00,0.00,VWS V14.00,2013-08-31 10:34:00,
2013-08-31 04:39:00,51.3,45.0,30.82,North,360,0.0,0.0,79,0.00,,,0.00,0.00,VWS V14.00,2013-08-31 10:39:00,
2013-08-31 04:44:00,51.3,45.0,30.82,North,360,0.0,0.0,79,0.00,,,0.00,0.00,VWS V14.00,2013-08-31 10:44:00,
2013-08-31 04:49:00,51.2,44.6,30.82,North,360,0.0,0.0,78,0.00,,,0.00,0.00,VWS V14.00,2013-08-31 10:49:00,
2013-08-31 04:54:00,51.1,44.2,30.82,North,360,2.0,2.0,77,0.00,,,0.00,0.00,VWS V14.00,2013-08-31 10:54:00,
2013-08-31 04:59:00,50.8,44.5,30.82,North,360,0.0,2.0,79,0.00,,,0.00,0.00,VWS V14.00,2013-08-31 10:59:00,
2013-08-31 05:04:00,50.7,44.4,30.82,North,360,0.0,2.0,79,0.00,,,0.00,0.00,VWS V14.00,2013-08-31 11:04:00,
2013-08-31 05:09:00,50.4,43.8,30.83,North,360,0.0,0.0,78,0.00,,,0.00,0.00,VWS V14.00,2013-08-31 11:09:00,
2013-08-31 05:14:00,50.2,44.0,30.84,North,360,0.0,1.0,79,0.00,,,0.00,0.00,VWS V14.00,2013-08-31 11:14:00,
2013-08-31 05:19:00,50.2,44.3,30.84,North,360,1.0,3.0,80,0.00,,,0.00,0.00,VWS V14.00,2013-08-31 11:19:00,
2013-08-31 05:24:00,50.6,44.7,30.83,North,360,0.0,0.0,80,0.00,,,0.00,0.00,VWS V14.00,2013-08-31 11:24:00,
2013-08-31 05:29:00,51.2,44.9,30.83,East,99,0.0,4.0,79,0.00,,,0.00,0.00,VWS V14.00,2013-08-31 11:29:00,
2013-08-31 05:34:00,51.5,44.9,30.83,East,100,0.0,4.0,78,0.00,,,0.00,0.00,VWS V14.00,2013-08-31 11:34:00,
2013-08-31 05:39:00,51.5,44.5,30.83,East,100,0.0,0.0,77,0.00,,,0.00,0.00,VWS V14.00,2013-08-31 11:39:00,
2013-08-31 05:44:00,51.5,44.5,30.83,East,100,0.0,0.0,77,0.00,,,0.00,0.00,VWS V14.00,2013-08-31 11:44:00,
2013-08-31 05:49:00,51.3,44.3,30.83,East,100,0.0,0.0,77,0.00,,,0.00,0.00,VWS V14.00,2013-08-31 11:49:00,
2013-08-31 05:54:00,51.1,44.5,30.83,East,100,0.0,0.0,78,0.00,,,0.00,0.00,VWS V14.00,2013-08-31 11:54:00,
2013-08-31 05:59:00,50.9,44.6,30.83,East,99,0.0,0.0,79,0.00,,,0.00,0.00,VWS V14.00,2013-08-31 11:59:00,
2013-08-31 06:04:00,50.7,44.4,30.84,East,100,0.0,0.0,79,0.00,,,0.00,0.00,VWS V14.00,2013-08-31 12:04:00,
2013-08-31 06:09:00,50.7,44.8,30.84,East,100,0.0,0.0,80,0.00,,,0.00,0.00,VWS V14.00,2013-08-31 12:09:00,
2013-08-31 06:14:00,50.8,44.9,30.84,East,100,0.0,0.0,80,0.00,,,0.00,0.00,VWS V14.00,2013-08-31 12:14:00,
2013-08-31 06:19:00,50.8,44.9,30.84,East,99,0.0,0.0,80,0.00,,,0.00,0.00,VWS V14.00,2013-08-31 12:19:00,
2013-08-31 06:24:00,50.8,44.9,30.84,East,100,0.0,0.0,80,0.00,,,0.00,0.00,VWS V14.00,2013-08-31 12:24:00,
2013-08-31 06:29:00,50.8,44.9,30.84,East,100,0.0,0.0,80,0.00,,,0.00,0.00,VWS V14.00,2013-08-31 12:29:00,
2013-08-31 06:34:00,50.8,44.9,30.85,East,99,0.0,0.0,80,0.00,,,0.00,0.00,VWS V14.00,2013-08-31 12:34:00,
2013-08-31 06:39:00,50.9,45.0,30.85,East,99,0.0,0.0,80,0.00,,,0.00,0.00,VWS V14.00,2013-08-31 12:39:00,
2013-08-31 06:44:00,51.1,45.2,30.85,East,100,0.0,0.0,80,0.00,,,0.00,0.00,VWS V14.00,2013-08-31 12:44:00,
2013-08-31 06:49:00,51.3,45.0,30.85,East,100,0.0,0.0,79,0.00,,,0.00,0.00,VWS V14.00,2013-08-31 12:49:00,
2013-08-31 06:54:00,51.4,45.1,30.85,East,99,0.0,0.0,79,0.00,,,0.00,0.00,VWS V14.00,2013-08-31 12:54:00,
2013-08-31 06:59:00,51.5,45.2,30.85,East,100,0.0,0.0,79,0.00,,,0.00,0.00,VWS V14.00,2013-08-31 12:59:00,
2013-08-31 07:04:00,51.6,45.0,30.85,East,100,0.0,0.0,78,0.00,,,0.00,5.00,VWS V14.00,2013-08-31 13:04:00,
2013-08-31 07:09:00,51.7,45.4,30.87,East,99,0.0,0.0,79,0.00,,,0.00,7.00,VWS V14.00,2013-08-31 13:09:00,
2013-08-31 07:14:00,51.7,45.1,30.88,East,99,0.0,1.0,78,0.00,,,0.00,9.00,VWS V14.00,2013-08-31 13:14:00,
2013-08-31 07:19:00,51.8,45.2,30.88,East,99,0.0,1.0,78,0.00,,,0.00,11.00,VWS V14.00,2013-08-31 13:19:00,
2013-08-31 07:24:00,51.9,45.3,30.87,East,100,0.0,0.0,78,0.00,,,0.00,12.00,VWS V14.00,2013-08-31 13:24:00,
2013-08-31 07:29:00,51.9,44.9,30.87,East,100,0.0,0.0,77,0.00,,,0.00,12.00,VWS V14.00,2013-08-31 13:29:00,
2013-08-31 07:34:00,51.9,44.9,30.88,East,99,0.0,0.0,77,0.00,,,0.00,14.00,VWS V14.00,2013-08-31 13:34:00,
2013-08-31 07:39:00,51.8,44.5,30.88,East,100,0.0,0.0,76,0.00,,,0.00,16.00,VWS V14.00,2013-08-31 13:39:00,
2013-08-31 07:44:00,51.7,44.4,30.88,East,99,0.0,0.0,76,0.00,,,0.00,18.00,VWS V14.00,2013-08-31 13:44:00,
2013-08-31 07:49:00,51.5,44.9,30.87,East,99,0.0,0.0,78,0.00,,,0.00,18.00,VWS V14.00,2013-08-31 13:49:00,
2013-08-31 07:54:00,51.3,45.0,30.88,East,100,0.0,0.0,79,0.00,,,0.00,19.00,VWS V14.00,2013-08-31 13:54:00,
2013-08-31 07:59:00,51.1,44.5,30.89,East,100,0.0,0.0,78,0.00,,,0.00,19.00,VWS V14.00,2013-08-31 13:59:00,
2013-08-31 08:04:00,50.9,44.6,30.88,East,99,0.0,0.0,79,0.00,,,0.00,21.00,VWS V14.00,2013-08-31 14:04:00,
2013-08-31 08:09:00,50.8,44.9,30.90,East,100,0.0,0.0,80,0.00,,,0.00,21.00,VWS V14.00,2013-08-31 14:09:00,
2013-08-31 08:14:00,50.6,45.3,30.90,East,100,0.0,0.0,82,0.00,,,0.00,21.00,VWS V14.00,2013-08-31 14:14:00,
2013-08-31 08:19:00,50.6,45.6,30.90,East,99,0.0,0.0,83,0.00,,,0.00,23.00,VWS V14.00,2013-08-31 14:19:00,
2013-08-31 08:24:00,50.5,45.5,30.91,East,100,0.0,0.0,83,0.00,,,0.00,23.00,VWS V14.00,2013-08-31 14:24:00,
2013-08-31 08:29:00,50.6,46.0,30.91,East,99,0.0,2.0,84,0.00,,,0.00,25.00,VWS V14.00,2013-08-31 14:29:00,
2013-08-31 08:34:00,50.8,46.5,30.91,North,360,3.0,4.0,85,0.00,,,0.00,25.00,VWS V14.00,2013-08-31 14:34:00,
2013-08-31 08:39:00,51.3,46.6,30.91,North,5,1.0,3.0,84,0.00,,,0.00,25.00,VWS V14.00,2013-08-31 14:39:00,
2013-08-31 08:44:00,51.8,47.1,30.90,North,5,0.0,3.0,84,0.00,,,0.00,26.00,VWS V14.00,2013-08-31 14:44:00,
2013-08-31 08:49:00,52.2,47.5,30.89,North,5,0.0,3.0,84,0.00,,,0.00,26.00,VWS V14.00,2013-08-31 14:49:00,
2013-08-31 08:54:00,52.7,48.0,30.89,North,360,0.0,0.0,84,0.00,,,0.00,26.00,VWS V14.00,2013-08-31 14:54:00,
2013-08-31 08:59:00,52.9,48.2,30.89,North,5,0.0,0.0,84,0.00,,,0.00,26.00,VWS V14.00,2013-08-31 14:59:00,
2013-08-31 09:04:00,53.2,47.9,30.89,North,5,0.0,0.0,82,0.00,,,0.00,28.00,VWS V14.00,2013-08-31 15:04:00,
2013-08-31 09:09:00,53.6,47.3,30.91,North,5,0.0,0.0,79,0.00,,,0.00,28.00,VWS V14.00,2013-08-31 15:09:00,
2013-08-31 09:14:00,54.2,47.2,30.90,North,9,0.0,0.0,77,0.00,,,0.00,28.00,VWS V14.00,2013-08-31 15:14:00,
2013-08-31 09:19:00,55.0,49.0,30.90,North,9,0.0,0.0,80,0.00,,,0.00,28.00,VWS V14.00,2013-08-31 15:19:00,
2013-08-31 09:24:00,55.5,49.8,30.89,North,9,0.0,1.0,81,0.00,,,0.00,30.00,VWS V14.00,2013-08-31 15:24:00,
2013-08-31 09:29:00,56.2,50.1,30.89,North,9,0.0,1.0,80,0.00,,,0.00,30.00,VWS V14.00,2013-08-31 15:29:00,
2013-08-31 09:34:00,56.8,50.0,30.88,North,9,0.0,1.0,78,0.00,,,0.00,32.00,VWS V14.00,2013-08-31 15:34:00,
2013-08-31 09:39:00,57.3,50.5,30.88,North,9,1.0,1.0,78,0.00,,,0.00,32.00,VWS V14.00,2013-08-31 15:39:00,
2013-08-31 09:44:00,57.7,50.2,30.87,North,9,0.0,2.0,76,0.00,,,0.00,32.00,VWS V14.00,2013-08-31 15:44:00,
2013-08-31 09:49:00,58.2,51.0,30.87,North,9,1.0,4.0,77,0.00,,,0.00,33.00,VWS V14.00,2013-08-31 15:49:00,
2013-08-31 09:54:00,58.6,50.0,30.87,North,9,0.0,1.0,73,0.00,,,0.00,33.00,VWS V14.00,2013-08-31 15:54:00,
2013-08-31 09:59:00,59.0,50.7,30.87,North,9,0.0,1.0,74,0.00,,,0.00,33.00,VWS V14.00,2013-08-31 15:59:00,
2013-08-31 10:04:00,59.5,50.8,30.86,North,9,0.0,3.0,73,0.00,,,0.00,33.00,VWS V14.00,2013-08-31 16:04:00,
2013-08-31 10:09:00,59.9,50.9,30.87,North,9,0.0,0.0,72,0.00,,,0.00,72.00,VWS V14.00,2013-08-31 16:09:00,
2013-08-31 10:14:00,60.3,50.1,30.87,North,360,0.0,3.0,69,0.00,,,0.00,62.00,VWS V14.00,2013-08-31 16:14:00,
2013-08-31 10:19:00,60.7,50.5,30.86,North,360,0.0,3.0,69,0.00,,,0.00,91.00,VWS V14.00,2013-08-31 16:19:00,
2013-08-31 10:24:00,61.2,50.6,30.86,North,5,0.0,1.0,68,0.00,,,0.00,526.00,VWS V14.00,2013-08-31 16:24:00,
2013-08-31 10:29:00,61.7,50.2,30.86,North,355,0.0,3.0,66,0.00,,,0.00,538.00,VWS V14.00,2013-08-31 16:29:00,
2013-08-31 10:34:00,62.3,50.4,30.85,North,355,0.0,3.0,65,0.00,,,0.00,552.00,VWS V14.00,2013-08-31 16:34:00,
2013-08-31 10:39:00,63.6,50.4,30.85,North,355,0.0,0.0,62,0.00,,,0.00,564.00,VWS V14.00,2013-08-31 16:39:00,
2013-08-31 10:44:00,65.0,51.7,30.83,North,355,0.0,0.0,62,0.00,,,0.00,570.00,VWS V14.00,2013-08-31 16:44:00,
2013-08-31 10:49:00,66.0,52.2,30.83,NNW,346,0.0,4.0,61,0.00,,,0.00,584.00,VWS V14.00,2013-08-31 16:49:00,
2013-08-31 10:54:00,66.9,53.9,30.82,NNW,344,3.0,4.0,63,0.00,,,0.00,592.00,VWS V14.00,2013-08-31 16:54:00,
2013-08-31 10:59:00,67.6,53.2,30.82,NNW,348,2.0,5.0,60,0.00,,,0.00,603.00,VWS V14.00,2013-08-31 16:59:00,
2013-08-31 11:04:00,68.0,52.7,30.82,NNW,345,3.0,5.0,58,0.00,,,0.00,612.00,VWS V14.00,2013-08-31 17:04:00,
2013-08-31 11:09:00,68.3,53.0,30.82,NNW,334,4.0,5.0,58,0.00,,,0.00,622.00,VWS V14.00,2013-08-31 17:09:00,
2013-08-31 11:14:00,68.6,53.2,30.81,North,355,5.0,7.0,58,0.00,,,0.00,631.00,VWS V14.00,2013-08-31 17:14:00,
2013-08-31 11:20:00,68.8,52.5,30.82,North,350,0.0,7.0,56,0.00,,,0.00,642.00,VWS V14.00,2013-08-31 17:20:00,
2013-08-31 11:24:00,69.2,52.4,30.82,NNW,342,5.0,5.0,55,0.00,,,0.00,649.00,VWS V14.00,2013-08-31 17:24:00,
2013-08-31 11:30:00,69.4,52.5,30.81,North,9,6.0,10.0,55,0.00,,,0.00,657.00,VWS V14.00,2013-08-31 17:30:00,
2013-08-31 11:35:00,69.8,53.9,30.80,North,355,4.0,10.0,57,0.00,,,0.00,664.00,VWS V14.00,2013-08-31 17:35:00,
2013-08-31 11:40:00,70.0,52.6,30.80,NNW,344,4.0,9.0,54,0.00,,,0.00,671.00,VWS V14.00,2013-08-31 17:40:00,
2013-08-31 11:45:00,70.1,53.7,30.80,NNW,334,5.0,9.0,56,0.00,,,0.00,679.00,VWS V14.00,2013-08-31 17:45:00,
2013-08-31 11:50:00,70.2,53.3,30.80,North,355,4.0,9.0,55,0.00,,,0.00,687.00,VWS V14.00,2013-08-31 17:50:00,
2013-08-31 11:55:00,70.4,53.5,30.79,NNW,345,5.0,5.0,55,0.00,,,0.00,694.00,VWS V14.00,2013-08-31 17:55:00,
2013-08-31 12:00:00,71.0,53.0,30.79,North,355,5.0,7.0,53,0.00,,,0.00,701.00,VWS V14.00,2013-08-31 18:00:00,
2013-08-31 12:05:00,71.3,53.8,30.79,North,355,6.0,9.0,54,0.00,,,0.00,707.00,VWS V14.00,2013-08-31 18:05:00,
2013-08-31 12:10:00,71.5,52.4,30.80,NNW,331,5.0,5.0,51,0.00,,,0.00,712.00,VWS V14.00,2013-08-31 18:10:00,
2013-08-31 12:15:00,71.9,53.3,30.80,North,351,3.0,7.0,52,0.00,,,0.00,719.00,VWS V14.00,2013-08-31 18:15:00,
2013-08-31 12:20:00,72.4,53.3,30.79,North,351,4.0,7.0,51,0.00,,,0.00,724.00,VWS V14.00,2013-08-31 18:20:00,
2013-08-31 12:25:00,72.8,53.1,30.78,NNW,338,3.0,6.0,50,0.00,,,0.00,728.00,VWS V14.00,2013-08-31 18:25:00,
2013-08-31 12:30:00,73.0,52.2,30.78,NNW,346,4.0,8.0,48,0.00,,,0.00,733.00,VWS V14.00,2013-08-31 18:30:00,
2013-08-31 12:35:00,73.2,52.9,30.78,North,355,5.0,11.0,49,0.00,,,0.00,737.00,VWS V14.00,2013-08-31 18:35:00,
2013-08-31 12:40:00,73.3,53.0,30.78,NNW,346,5.0,7.0,49,0.00,,,0.00,740.00,VWS V14.00,2013-08-31 18:40:00,
2013-08-31 12:45:00,73.5,52.1,30.78,NNW,345,5.0,7.0,47,0.00,,,0.00,744.00,VWS V14.00,2013-08-31 18:45:00,
2013-08-31 12:50:00,73.7,52.8,30.77,NNW,338,6.0,7.0,48,0.00,,,0.00,747.00,VWS V14.00,2013-08-31 18:50:00,
2013-08-31 12:55:00,73.8,51.8,30.77,NNW,346,5.0,7.0,46,0.00,,,0.00,749.00,VWS V14.00,2013-08-31 18:55:00,
2013-08-31 13:00:00,74.0,54.2,30.77,NNW,338,5.0,11.0,50,0.00,,,0.00,752.00,VWS V14.00,2013-08-31 19:00:00,
2013-08-31 13:05:00,74.2,54.4,30.77,NNW,336,9.0,11.0,50,0.00,,,0.00,754.00,VWS V14.00,2013-08-31 19:05:00,
2013-08-31 13:10:00,74.4,53.5,30.76,NW,326,6.0,7.0,48,0.00,,,0.00,756.00,VWS V14.00,2013-08-31 19:10:00,
2013-08-31 13:15:00,74.7,53.2,30.76,NNW,344,6.0,11.0,47,0.00,,,0.00,758.00,VWS V14.00,2013-08-31 19:15:00,
2013-08-31 13:20:00,74.9,53.3,30.76,North,355,6.0,13.0,47,0.00,,,0.00,759.00,VWS V14.00,2013-08-31 19:20:00,
2013-08-31 13:25:00,75.2,53.6,30.76,North,355,11.0,11.0,47,0.00,,,0.00,758.00,VWS V14.00,2013-08-31 19:25:00,
2013-08-31 13:30:00,75.3,52.5,30.76,NNW,348,6.0,13.0,45,0.00,,,0.00,761.00,VWS V14.00,2013-08-31 19:30:00,
2013-08-31 13:34:00,75.6,55.1,30.75,North,355,9.0,13.0,49,0.00,,,0.00,759.00,VWS V14.00,2013-08-31 19:34:00,
2013-08-31 13:40:00,76.0,54.3,30.75,North,355,9.0,10.0,47,0.00,,,0.00,759.00,VWS V14.00,2013-08-31 19:40:00,
2013-08-31 13:44:00,76.3,53.4,30.74,NNW,348,5.0,12.0,45,0.00,,,0.00,759.00,VWS V14.00,2013-08-31 19:44:00,
2013-08-31 13:49:00,76.6,52.5,30.75,NNW,334,9.0,12.0,43,0.00,,,0.00,758.00,VWS V14.00,2013-08-31 19:49:00,
2013-08-31 13:54:00,76.9,55.7,30.74,North,350,5.0,9.0,48,0.00,,,0.00,756.00,VWS V14.00,2013-08-31 19:54:00,
2013-08-31 14:00:00,77.2,54.2,30.74,North,355,10.0,11.0,45,0.00,,,0.00,756.00,VWS V14.00,2013-08-31 20:00:00,
2013-08-31 14:05:00,77.4,54.4,30.74,North,355,9.0,12.0,45,0.00,,,0.00,754.00,VWS V14.00,2013-08-31 20:05:00,
2013-08-31 14:10:00,77.8,54.2,30.73,North,5,11.0,11.0,44,0.00,,,0.00,752.00,VWS V14.00,2013-08-31 20:10:00,
2013-08-31 14:15:00,77.9,54.3,30.76,NNW,341,7.0,12.0,44,0.00,,,0.00,747.00,VWS V14.00,2013-08-31 20:15:00,
2013-08-31 14:20:00,78.3,56.4,30.76,North,355,7.0,12.0,47,0.00,,,0.00,745.00,VWS V14.00,2013-08-31 20:20:00,
2013-08-31 14:25:00,78.7,55.0,30.74,NNW,345,5.0,10.0,44,0.00,,,0.00,740.00,VWS V14.00,2013-08-31 20:25:00,
2013-08-31 14:30:00,78.8,53.1,30.75,North,355,5.0,10.0,41,0.00,,,0.00,738.00,VWS V14.00,2013-08-31 20:30:00,
2013-08-31 14:35:00,79.1,54.1,30.75,North,355,7.0,11.0,42,0.00,,,0.00,735.00,VWS V14.00,2013-08-31 20:35:00,
2013-08-31 14:40:00,79.4,55.6,30.74,NNW,334,6.0,10.0,44,0.00,,,0.00,728.00,VWS V14.00,2013-08-31 20:40:00,
2013-08-31 14:45:00,79.7,55.2,30.74,North,349,4.0,10.0,43,0.00,,,0.00,722.00,VWS V14.00,2013-08-31 20:45:00,
2013-08-31 14:50:00,80.1,53.6,30.74,North,350,6.0,10.0,40,0.00,,,0.00,719.00,VWS V14.00,2013-08-31 20:50:00,
2013-08-31 14:55:00,80.3,53.8,30.74,NNW,348,5.0,7.0,40,0.00,,,0.00,712.00,VWS V14.00,2013-08-31 20:55:00,
2013-08-31 15:00:00,80.7,54.8,30.72,North,350,6.0,10.0,41,0.00,,,0.00,707.00,VWS V14.00,2013-08-31 21:00:00,
2013-08-31 15:05:00,81.0,53.7,30.72,NNW,335,6.0,10.0,39,0.00,,,0.00,701.00,VWS V14.00,2013-08-31 21:05:00,
2013-08-31 15:10:00,81.1,55.2,30.73,North,355,4.0,10.0,41,0.00,,,0.00,696.00,VWS V14.00,2013-08-31 21:10:00,
2013-08-31 15:15:00,81.4,54.1,30.72,NNW,334,5.0,10.0,39,0.00,,,0.00,689.00,VWS V14.00,2013-08-31 21:15:00,
2013-08-31 15:20:00,81.6,53.6,30.71,NNW,347,3.0,10.0,38,0.00,,,0.00,680.00,VWS V14.00,2013-08-31 21:20:00,
2013-08-31 15:25:00,81.8,53.0,30.71,NNW,342,6.0,7.0,37,0.00,,,0.00,675.00,VWS V14.00,2013-08-31 21:25:00,
2013-08-31 15:30:00,82.1,55.4,30.71,North,351,10.0,11.0,40,0.00,,,0.00,666.00,VWS V14.00,2013-08-31 21:30:00,
2013-08-31 15:35:00,82.4,54.3,30.71,NNW,342,8.0,11.0,38,0.00,,,0.00,659.00,VWS V14.00,2013-08-31 21:35:00,
2013-08-31 15:40:00,82.5,53.6,30.70,NNW,337,6.0,7.0,37,0.00,,,0.00,650.00,VWS V14.00,2013-08-31 21:40:00,
2013-08-31 15:45:00,82.7,51.5,30.70,NNW,338,4.0,8.0,34,0.00,,,0.00,643.00,VWS V14.00,2013-08-31 21:45:00,
2013-08-31 15:50:00,82.9,53.2,30.70,NNW,342,5.0,10.0,36,0.00,,,0.00,633.00,VWS V14.00,2013-08-31 21:50:00,
2013-08-31 15:55:00,83.0,54.8,30.70,NNW,344,3.0,8.0,38,0.00,,,0.00,624.00,VWS V14.00,2013-08-31 21:55:00,
2013-08-31 16:00:00,83.2,54.2,30.69,North,355,6.0,8.0,37,0.00,,,0.00,615.00,VWS V14.00,2013-08-31 22:00:00,
2013-08-31 16:05:00,83.4,52.9,30.69,NNW,344,6.0,10.0,35,0.00,,,0.00,606.00,VWS V14.00,2013-08-31 22:05:00,
2013-08-31 16:10:00,83.4,55.2,30.69,NNW,338,6.0,7.0,38,0.00,,,0.00,596.00,VWS V14.00,2013-08-31 22:10:00,
2013-08-31 16:15:00,83.6,52.3,30.69,NNW,339,6.0,10.0,34,0.00,,,0.00,587.00,VWS V14.00,2013-08-31 22:15:00,
2013-08-31 16:20:00,83.6,54.6,30.69,NNW,346,7.0,11.0,37,0.00,,,0.00,578.00,VWS V14.00,2013-08-31 22:20:00,
2013-08-31 16:25:00,83.7,53.9,30.68,NNW,345,5.0,6.0,36,0.00,,,0.00,566.00,VWS V14.00,2013-08-31 22:25:00,
2013-08-31 16:30:00,83.9,54.1,30.68,NNW,342,6.0,10.0,36,0.00,,,0.00,555.00,VWS V14.00,2013-08-31 22:30:00,
2013-08-31 16:35:00,84.0,55.0,30.68,NNW,339,5.0,10.0,37,0.00,,,0.00,547.00,VWS V14.00,2013-08-31 22:35:00,
2013-08-31 16:40:00,84.0,56.4,30.67,North,360,4.0,7.0,39,0.00,,,0.00,536.00,VWS V14.00,2013-08-31 22:40:00,
2013-08-31 16:45:00,84.1,52.7,30.68,NNW,346,7.0,9.0,34,0.00,,,0.00,524.00,VWS V14.00,2013-08-31 22:45:00,
2013-08-31 16:50:00,84.1,51.1,30.67,North,360,5.0,9.0,32,0.00,,,0.00,512.00,VWS V14.00,2013-08-31 22:50:00,
2013-08-31 16:54:00,84.3,56.0,30.67,North,355,5.0,5.0,38,0.00,,,0.00,501.00,VWS V14.00,2013-08-31 22:54:00,
2013-08-31 17:00:00,84.5,53.1,30.67,North,355,4.0,7.0,34,0.00,,,0.00,489.00,VWS V14.00,2013-08-31 23:00:00,
2013-08-31 17:05:00,84.6,51.5,30.67,North,355,2.0,7.0,32,0.00,,,0.00,476.00,VWS V14.00,2013-08-31 23:05:00,
2013-08-31 17:10:00,84.9,54.2,30.66,NNW,346,4.0,5.0,35,0.00,,,0.00,466.00,VWS V14.00,2013-08-31 23:10:00,
2013-08-31 17:15:00,84.9,55.0,30.66,NNW,336,6.0,7.0,36,0.00,,,0.00,454.00,VWS V14.00,2013-08-31 23:15:00,
2013-08-31 17:20:00,84.8,55.7,30.66,North,360,5.0,7.0,37,0.00,,,0.00,439.00,VWS V14.00,2013-08-31 23:20:00,
2013-08-31 17:25:00,84.8,53.3,30.66,NNW,345,4.0,4.0,34,0.00,,,0.00,425.00,VWS V14.00,2013-08-31 23:25:00,
2013-08-31 17:30:00,84.8,54.9,30.65,NNW,345,4.0,5.0,36,0.00,,,0.00,411.00,VWS V14.00,2013-08-31 23:30:00,
2013-08-31 17:35:00,84.8,53.3,30.66,NNW,345,2.0,6.0,34,0.00,,,0.00,397.00,VWS V14.00,2013-08-31 23:35:00,
2013-08-31 17:40:00,84.7,54.0,30.65,NNW,345,4.0,6.0,35,0.00,,,0.00,383.00,VWS V14.00,2013-08-31 23:40:00,
2013-08-31 17:45:00,84.6,54.7,30.65,North,350,3.0,6.0,36,0.00,,,0.00,373.00,VWS V14.00,2013-08-31 23:45:00,
2013-08-31 17:50:00,84.4,53.0,30.66,North,349,2.0,6.0,34,0.00,,,0.00,357.00,VWS V14.00,2013-08-31 23:50:00,
2013-08-31 17:55:00,84.3,56.0,30.66,North,349,3.0,4.0,38,0.00,,,0.00,343.00,VWS V14.00,2013-08-31 23:55:00,
2013-08-31 18:00:00,84.2,55.1,30.66,North,350,4.0,6.0,37,0.00,,,0.00,329.00,VWS V14.00,2013-09-01 00:00:00,
2013-08-31 18:05:00,83.9,55.6,30.65,North,355,4.0,6.0,38,0.00,,,0.00,315.00,VWS V14.00,2013-09-01 00:05:00,
2013-08-31 18:10:00,83.6,56.0,30.64,North,355,5.0,5.0,39,0.00,,,0.00,301.00,VWS V14.00,2013-09-01 00:10:00,
2013-08-31 18:15:00,83.4,55.9,30.65,North,349,4.0,6.0,39,0.00,,,0.00,285.00,VWS V14.00,2013-09-01 00:15:00,
2013-08-31 18:20:00,83.1,56.3,30.65,North,349,3.0,6.0,40,0.00,,,0.00,274.00,VWS V14.00,2013-09-01 00:20:00,
2013-08-31 18:25:00,83.0,56.2,30.65,North,350,4.0,5.0,40,0.00,,,0.00,262.00,VWS V14.00,2013-09-01 00:25:00,
2013-08-31 18:30:00,82.7,56.6,30.65,North,349,4.0,6.0,41,0.00,,,0.00,244.00,VWS V14.00,2013-09-01 00:30:00,
2013-08-31 18:35:00,82.3,56.9,30.65,North,350,2.0,6.0,42,0.00,,,0.00,232.00,VWS V14.00,2013-09-01 00:35:00,
2013-08-31 18:40:00,82.0,56.7,30.65,North,350,3.0,4.0,42,0.00,,,0.00,216.00,VWS V14.00,2013-09-01 00:40:00,
2013-08-31 18:45:00,81.7,57.0,30.65,North,351,5.0,6.0,43,0.00,,,0.00,202.00,VWS V14.00,2013-09-01 00:45:00,
2013-08-31 18:50:00,81.3,57.3,30.66,North,350,3.0,6.0,44,0.00,,,0.00,190.00,VWS V14.00,2013-09-01 00:50:00,
2013-08-31 18:55:00,80.8,56.2,30.66,North,355,4.0,5.0,43,0.00,,,0.00,178.00,VWS V14.00,2013-09-01 00:55:00,
2013-08-31 19:00:00,80.3,55.8,30.66,North,355,3.0,6.0,43,0.00,,,0.00,165.00,VWS V14.00,2013-09-01 01:00:00,
2013-08-31 19:05:00,80.0,55.5,30.66,North,355,3.0,6.0,43,0.00,,,0.00,151.00,VWS V14.00,2013-09-01 01:05:00,
2013-08-31 19:10:00,79.7,55.2,30.67,North,355,4.0,5.0,43,0.00,,,0.00,139.00,VWS V14.00,2013-09-01 01:10:00,
2013-08-31 19:15:00,79.5,53.8,30.67,North,349,4.0,6.0,41,0.00,,,0.00,125.00,VWS V14.00,2013-09-01 01:15:00,
2013-08-31 19:20:00,79.2,54.2,30.66,North,355,3.0,6.0,42,0.00,,,0.00,111.00,VWS V14.00,2013-09-01 01:20:00,
2013-08-31 19:25:00,79.0,54.6,30.67,North,355,2.0,2.0,43,0.00,,,0.00,97.00,VWS V14.00,2013-09-01 01:25:00,
2013-08-31 19:30:00,78.8,55.1,30.67,North,355,0.0,5.0,44,0.00,,,0.00,83.00,VWS V14.00,2013-09-01 01:30:00,
2013-08-31 19:35:00,78.7,54.3,30.66,North,355,0.0,5.0,43,0.00,,,0.00,70.00,VWS V14.00,2013-09-01 01:35:00,
2013-08-31 19:40:00,78.3,54.6,30.68,North,355,3.0,3.0,44,0.00,,,0.00,58.00,VWS V14.00,2013-09-01 01:40:00,
2013-08-31 19:45:00,78.0,55.6,30.67,North,355,0.0,3.0,46,0.00,,,0.00,46.00,VWS V14.00,2013-09-01 01:45:00,
2013-08-31 19:50:00,77.7,55.3,30.68,North,355,0.0,3.0,46,0.00,,,0.00,35.00,VWS V14.00,2013-09-01 01:50:00,
2013-08-31 19:55:00,77.5,55.1,30.67,North,355,0.0,0.0,46,0.00,,,0.00,16.00,VWS V14.00,2013-09-01 01:55:00,
2013-08-31 20:00:00,77.2,53.6,30.67,North,355,0.0,0.0,44,0.00,,,0.00,9.00,VWS V14.00,2013-09-01 02:00:00,
2013-08-31 20:05:00,76.8,53.9,30.67,North,355,0.0,0.0,45,0.00,,,0.00,7.00,VWS V14.00,2013-09-01 02:05:00,
2013-08-31 20:10:00,76.2,52.1,30.67,North,355,0.0,0.0,43,0.00,,,0.00,5.00,VWS V14.00,2013-09-01 02:10:00,
2013-08-31 20:15:00,75.7,54.1,30.67,North,355,0.0,1.0,47,0.00,,,0.00,0.00,VWS V14.00,2013-09-01 02:15:00,
2013-08-31 20:20:00,75.1,54.1,30.67,North,355,0.0,1.0,48,0.00,,,0.00,0.00,VWS V14.00,2013-09-01 02:20:00,
2013-08-31 20:25:00,74.4,52.3,30.68,North,355,0.0,1.0,46,0.00,,,0.00,0.00,VWS V14.00,2013-09-01 02:25:00,
2013-08-31 20:30:00,74.1,51.4,30.68,North,355,0.0,2.0,45,0.00,,,0.00,0.00,VWS V14.00,2013-09-01 02:30:00,
2013-08-31 20:35:00,73.7,49.8,30.68,North,355,0.0,3.0,43,0.00,,,0.00,0.00,VWS V14.00,2013-09-01 02:35:00,
2013-08-31 20:40:00,73.4,50.2,30.69,North,355,0.0,0.0,44,0.00,,,0.00,0.00,VWS V14.00,2013-09-01 02:40:00,
2013-08-31 20:45:00,73.2,51.2,30.70,North,355,0.0,0.0,46,0.00,,,0.00,0.00,VWS V14.00,2013-09-01 02:45:00,
2013-08-31 20:50:00,72.9,50.3,30.70,North,355,0.0,0.0,45,0.00,,,0.00,0.00,VWS V14.00,2013-09-01 02:50:00,
2013-08-31 20:55:00,72.6,50.1,30.70,North,355,0.0,0.0,45,0.00,,,0.00,0.00,VWS V14.00,2013-09-01 02:55:00,
2013-08-31 21:00:00,72.3,50.4,30.70,North,355,0.0,0.0,46,0.00,,,0.00,0.00,VWS V14.00,2013-09-01 03:00:00,
2013-08-31 21:05:00,71.9,52.3,30.70,North,355,0.0,0.0,50,0.00,,,0.00,0.00,VWS V14.00,2013-09-01 03:05:00,
2013-08-31 21:10:00,70.8,51.3,30.69,North,355,0.0,0.0,50,0.00,,,0.00,0.00,VWS V14.00,2013-09-01 03:10:00,
2013-08-31 21:15:00,69.8,51.9,30.68,North,355,0.0,0.0,53,0.00,,,0.00,0.00,VWS V14.00,2013-09-01 03:15:00,
2013-08-31 21:20:00,69.1,52.3,30.69,North,355,0.0,0.0,55,0.00,,,0.00,0.00,VWS V14.00,2013-09-01 03:20:00,
2013-08-31 21:25:00,68.5,50.7,30.69,North,355,0.0,0.0,53,0.00,,,0.00,0.00,VWS V14.00,2013-09-01 03:25:00,
2013-08-31 21:30:00,68.1,53.2,30.69,North,355,0.0,0.0,59,0.00,,,0.00,0.00,VWS V14.00,2013-09-01 03:30:00,
2013-08-31 21:35:00,67.1,51.4,30.71,North,355,0.0,1.0,57,0.00,,,0.00,0.00,VWS V14.00,2013-09-01 03:35:00,
2013-08-31 21:38:00,65.5,48.9,30.71,North,355,0.0,0.0,55,0.00,,,0.00,0.00,VWS V14.00,2013-09-01 03:38:00,
2013-08-31 21:40:00,66.2,49.6,30.71,North,355,0.0,0.0,55,0.00,,,0.00,0.00,VWS V14.00,2013-09-01 03:40:00,
2013-08-31 21:44:00,65.4,48.8,30.72,North,355,0.0,0.0,55,0.00,,,0.00,0.00,VWS V14.00,2013-09-01 03:44:00,
2013-08-31 21:45:00,65.7,49.1,30.71,North,355,0.0,0.0,55,0.00,,,0.00,0.00,VWS V14.00,2013-09-01 03:45:00,
2013-08-31 21:50:00,65.4,49.3,30.71,North,355,0.0,0.0,56,0.00,,,0.00,0.00,VWS V14.00,2013-09-01 03:50:00,
2013-08-31 21:55:00,65.4,48.8,30.72,North,355,0.0,0.0,55,0.00,,,0.00,0.00,VWS V14.00,2013-09-01 03:55:00,
2013-08-31 21:57:00,65.2,49.1,30.72,North,355,0.0,1.0,56,0.00,,,0.00,0.00,VWS V14.00,2013-09-01 03:57:00,
2013-08-31 22:00:00,65.4,49.3,30.72,North,355,0.0,0.0,56,0.00,,,0.00,0.00,VWS V14.00,2013-09-01 04:00:00,
2013-08-31 22:01:00,65.4,49.3,30.72,North,355,0.0,0.0,56,0.00,,,0.00,0.00,VWS V14.00,2013-09-01 04:01:00,
2013-08-31 22:02:00,65.4,49.3,30.72,North,355,0.0,0.0,56,0.00,,,0.00,0.00,VWS V14.00,2013-09-01 04:02:00,
2013-08-31 22:07:00,65.2,48.6,30.73,North,355,0.0,1.0,55,0.00,,,0.00,0.00,VWS V14.00,2013-09-01 04:07:00,
2013-08-31 22:12:00,64.8,48.3,30.69,North,355,0.0,0.0,55,0.00,,,0.00,0.00,VWS V14.00,2013-09-01 04:12:00,
2013-08-31 22:16:00,64.1,46.6,30.69,North,355,0.0,0.0,53,0.00,,,0.00,0.00,VWS V14.00,2013-09-01 04:16:00,
2013-08-31 22:17:00,64.5,48.0,30.69,North,355,0.0,0.0,55,0.00,,,0.00,0.00,VWS V14.00,2013-09-01 04:17:00,
2013-08-31 22:22:00,64.3,47.3,30.69,North,355,0.0,1.0,54,0.00,,,0.00,0.00,VWS V14.00,2013-09-01 04:22:00,
2013-08-31 22:27:00,64.0,46.5,30.69,North,355,0.0,0.0,53,0.00,,,0.00,0.00,VWS V14.00,2013-09-01 04:27:00,
2013-08-31 22:29:00,63.6,46.2,30.69,North,355,0.0,0.0,53,0.00,,,0.00,0.00,VWS V14.00,2013-09-01 04:29:00,
2013-08-31 22:31:00,63.6,45.7,30.69,North,355,0.0,0.0,52,0.00,,,0.00,0.00,VWS V14.00,2013-09-01 04:31:00,
2013-08-31 22:32:00,63.8,47.3,30.69,North,355,0.0,0.0,55,0.00,,,0.00,0.00,VWS V14.00,2013-09-01 04:32:00,
2013-08-31 22:37:00,63.7,45.8,30.69,North,355,0.0,0.0,52,0.00,,,0.00,0.00,VWS V14.00,2013-09-01 04:37:00,
2013-08-31 22:42:00,63.6,45.7,30.69,North,355,0.0,0.0,52,0.00,,,0.00,0.00,VWS V14.00,2013-09-01 04:42:00,
2013-08-31 22:47:00,63.7,45.8,30.69,North,355,0.0,0.0,52,0.00,,,0.00,0.00,VWS V14.00,2013-09-01 04:47:00,
2013-08-31 22:52:00,63.6,45.2,30.69,North,355,0.0,0.0,51,0.00,,,0.00,0.00,VWS V14.00,2013-09-01 04:52:00,
2013-08-31 22:55:00,63.1,46.7,30.70,North,355,0.0,1.0,55,0.00,,,0.00,0.00,VWS V14.00,2013-09-01 04:55:00,
2013-08-31 22:57:00,63.5,45.1,30.69,North,355,0.0,1.0,51,0.00,,,0.00,0.00,VWS V14.00,2013-09-01 04:57:00,
2013-08-31 23:02:00,63.4,46.5,30.70,North,355,0.0,1.0,54,0.00,,,0.00,0.00,VWS V14.00,2013-09-01 05:02:00,
2013-08-31 23:07:00,62.9,46.5,30.70,North,355,0.0,1.0,55,0.00,,,0.00,0.00,VWS V14.00,2013-09-01 05:07:00,
2013-08-31 23:12:00,62.4,47.5,30.69,North,355,0.0,0.0,58,0.00,,,0.00,0.00,VWS V14.00,2013-09-01 05:12:00,
2013-08-31 23:14:00,61.1,46.2,30.69,North,355,0.0,2.0,58,0.00,,,0.00,0.00,VWS V14.00,2013-09-01 05:14:00,
2013-08-31 23:17:00,62.0,47.5,30.69,North,355,0.0,0.0,59,0.00,,,0.00,0.00,VWS V14.00,2013-09-01 05:17:00,
2013-08-31 23:22:00,61.2,45.9,30.69,North,355,0.0,2.0,57,0.00,,,0.00,0.00,VWS V14.00,2013-09-01 05:22:00,
2013-08-31 23:27:00,60.7,46.3,30.69,North,355,0.0,1.0,59,0.00,,,0.00,0.00,VWS V14.00,2013-09-01 05:27:00,
2013-08-31 23:30:00,59.0,45.6,30.70,North,355,0.0,1.0,61,0.00,,,0.00,0.00,VWS V14.00,2013-09-01 05:30:00,
2013-08-31 23:32:00,59.9,46.4,30.70,North,355,0.0,1.0,61,0.00,,,0.00,0.00,VWS V14.00,2013-09-01 05:32:00,
2013-08-31 23:33:00,58.6,43.9,30.71,North,360,2.0,3.0,58,0.00,,,0.00,0.00,VWS V14.00,2013-09-01 05:33:00,
2013-08-31 23:37:00,59.0,46.0,30.71,North,355,2.0,3.0,62,0.00,,,0.00,0.00,VWS V14.00,2013-09-01 05:37:00,
2013-08-31 23:42:00,58.6,43.9,30.71,North,360,2.0,3.0,58,0.00,,,0.00,0.00,VWS V14.00,2013-09-01 05:42:00,
2013-08-31 23:47:00,58.5,43.8,30.71,NNE,22,0.0,3.0,58,0.00,,,0.00,0.00,VWS V14.00,2013-09-01 05:47:00,
2013-08-31 23:52:00,58.5,46.8,30.71,NNE,21,1.0,3.0,65,0.00,,,0.00,0.00,VWS V14.00,2013-09-01 05:52:00,
2013-08-31 23:57:00,58.4,43.7,30.72,NNE,21,0.0,0.0,58,0.00,,,0.00,0.00,VWS V14.00,2013-09-01 05:57:00,
2013-08-31 23:59:00,58.4,45.0,30.72,NNE,22,0.0,0.0,61,0.00,,,0.00,0.00,VWS V14.00,2013-09-01 05:59:00,